createdAt,value
2023-01-28T00:00:54.219Z,102118.34
2023-01-28T00:03:20.852Z,102129.63
2023-01-28T00:05:47.620Z,102126.19
2023-01-28T00:08:14.870Z,102127.97
2023-01-28T00:10:43.134Z,102127.06
2023-01-28T00:13:12.714Z,102128.59
2023-01-28T00:15:39.369Z,102128.59
2023-01-28T00:18:06.058Z,102125.13
2023-01-28T00:20:32.694Z,102127.41
2023-01-28T00:22:59.513Z,102126.53
2023-01-28T00:25:26.021Z,102126.53
2023-01-28T00:27:52.611Z,102120.63
2023-01-28T00:30:19.587Z,102124.72
2023-01-28T00:32:46.170Z,102128.00
2023-01-28T00:35:13.580Z,102126.22
2023-01-28T00:37:40.306Z,102128.94
2023-01-28T00:40:10.095Z,102122.00
2023-01-28T00:42:37.474Z,102119.75
2023-01-28T00:45:04.349Z,102111.94
2023-01-28T00:47:30.927Z,102111.75
2023-01-28T00:49:57.440Z,102118.41
2023-01-28T00:52:23.968Z,102112.38
2023-01-28T00:54:51.102Z,102113.00
2023-01-28T00:57:17.629Z,102107.25
2023-01-28T00:59:44.677Z,102106.34
2023-01-28T01:02:14.106Z,102109.06
2023-01-28T01:04:41.215Z,102112.38
2023-01-28T01:07:07.930Z,102105.47
2023-01-28T01:09:34.572Z,102108.78
2023-01-28T01:12:01.226Z,102108.50
2023-01-28T01:14:27.758Z,102115.16
2023-01-28T01:16:54.238Z,102118.16
2023-01-28T01:19:20.873Z,102119.53
2023-01-28T01:21:50.805Z,102121.19
2023-01-28T01:24:17.709Z,102127.34
2023-01-28T01:26:44.518Z,102120.44
2023-01-28T01:29:11.178Z,102127.81
2023-01-28T01:31:37.827Z,102126.03
2023-01-28T01:34:04.411Z,102129.63
2023-01-28T01:36:31.283Z,102133.09
2023-01-28T01:38:58.132Z,102137.44
2023-01-28T01:41:30.863Z,102132.31
2023-01-28T01:44:02.606Z,102126.59
2023-01-28T01:46:49.814Z,102139.53
2023-01-28T01:49:21.621Z,102132.03
2023-01-28T01:51:52.139Z,102134.72
2023-01-28T01:54:20.577Z,102129.59
2023-01-28T01:56:47.906Z,102130.50
2023-01-28T01:59:18.316Z,102141.50
2023-01-28T02:01:48.267Z,102143.44
2023-01-28T02:04:29.746Z,102145.72
2023-01-28T02:06:57.368Z,102128.69
2023-01-28T02:09:32.509Z,102138.94
2023-01-28T02:12:22.771Z,102138.47
2023-01-28T02:14:53.744Z,102139.25
2023-01-28T02:17:20.565Z,102147.53
2023-01-28T02:19:53.341Z,102144.97
2023-01-28T02:22:44.319Z,102138.19
2023-01-28T02:25:25.690Z,102138.97
2023-01-28T02:28:16.591Z,102137.16
2023-01-28T02:30:52.140Z,102146.34
2023-01-28T02:33:28.129Z,102146.81
2023-01-28T02:35:55.217Z,102149.84
2023-01-28T02:38:34.236Z,102151.78
2023-01-28T02:41:07.295Z,102155.41
2023-01-28T02:43:39.908Z,102160.34
2023-01-28T02:46:52.928Z,102153.75
2023-01-28T02:49:32.101Z,102156.13
2023-01-28T02:52:17.439Z,102159.47
2023-01-28T02:55:25.470Z,102154.34
2023-01-28T02:58:27.991Z,102156.91
2023-01-28T03:01:07.446Z,102159.47
2023-01-28T03:03:55.215Z,102151.63
2023-01-28T03:06:24.741Z,102154.06
2023-01-28T03:09:12.504Z,102150.13
2023-01-28T03:12:05.211Z,102146.06
2023-01-28T03:14:51.703Z,102146.22
2023-01-28T03:17:57.261Z,102141.09
2023-01-28T03:20:45.988Z,102147.25
2023-01-28T03:23:35.150Z,102145.31
2023-01-28T03:26:22.387Z,102145.19
2023-01-28T03:29:08.436Z,102138.22
2023-01-28T03:31:53.994Z,102144.41
2023-01-28T03:34:40.674Z,102152.09
2023-01-28T03:37:08.957Z,102160.06
2023-01-28T03:39:35.875Z,102154.94
2023-01-28T03:42:04.221Z,102154.19
2023-01-28T03:44:51.190Z,102155.22
2023-01-28T03:47:22.163Z,102157.91
2023-01-28T03:49:50.336Z,102160.34
2023-01-28T03:52:23.396Z,102162.13
2023-01-28T03:54:50.372Z,102167.53
2023-01-28T03:57:18.009Z,102171.16
2023-01-28T03:59:44.763Z,102165.88
2023-01-28T04:02:12.363Z,102170.22
2023-01-28T04:04:39.803Z,102162.72
2023-01-28T04:07:11.110Z,102166.31
2023-01-28T04:09:37.925Z,102167.38
2023-01-28T04:12:05.190Z,102172.75
2023-01-28T04:14:31.995Z,102170.97
2023-01-28T04:16:58.712Z,102178.03
2023-01-28T04:19:25.786Z,102176.84
2023-01-28T04:21:55.356Z,102176.09
2023-01-28T04:24:23.922Z,102178.78
2023-01-28T04:26:50.606Z,102173.53
2023-01-28T04:29:17.151Z,102172.75
2023-01-28T04:31:43.733Z,102171.25
2023-01-28T04:34:10.167Z,102169.59
2023-01-28T04:36:36.604Z,102170.22
2023-01-28T04:39:03.397Z,102177.13
2023-01-28T04:41:29.814Z,102176.22
2023-01-28T04:43:56.266Z,102171.88
2023-01-28T04:46:22.739Z,102170.22
2023-01-28T04:48:49.157Z,102172.91
2023-01-28T04:51:15.601Z,102173.66
2023-01-28T04:53:42.252Z,102170.97
2023-01-28T04:56:08.724Z,102172.75
2023-01-28T04:58:35.159Z,102175.31
2023-01-28T05:01:01.768Z,102175.19
2023-01-28T05:03:28.397Z,102171.59
2023-01-28T05:05:54.861Z,102178.38
2023-01-28T05:08:21.414Z,102178.50
2023-01-28T05:10:48.126Z,102181.81
2023-01-28T05:13:14.552Z,102187.69
2023-01-28T05:15:41.063Z,102188.59
2023-01-28T05:18:07.497Z,102185.28
2023-01-28T05:20:33.935Z,102191.31
2023-01-28T05:23:00.377Z,102194.63
2023-01-28T05:25:27.603Z,102194.75
2023-01-28T05:27:54.206Z,102195.81
2023-01-28T05:30:21.042Z,102193.25
2023-01-28T05:32:47.738Z,102202.72
2023-01-28T05:35:14.489Z,102195.53
2023-01-28T05:37:41.243Z,102198.38
2023-01-28T05:40:08.188Z,102204.25
2023-01-28T05:42:34.631Z,102205.75
2023-01-28T05:45:01.076Z,102207.56
2023-01-28T05:47:27.526Z,102202.31
2023-01-28T05:49:53.916Z,102202.44
2023-01-28T05:52:20.336Z,102200.50
2023-01-28T05:54:46.776Z,102205.75
2023-01-28T05:57:13.263Z,102206.53
2023-01-28T05:59:39.694Z,102206.53
2023-01-28T06:02:06.171Z,102203.06
2023-01-28T06:04:32.631Z,102203.06
2023-01-28T06:06:59.170Z,102203.19
2023-01-28T06:09:25.566Z,102212.69
2023-01-28T06:11:52.002Z,102206.81
2023-01-28T06:14:18.463Z,102207.84
2023-01-28T06:16:44.893Z,102203.47
2023-01-28T06:19:11.338Z,102206.03
2023-01-28T06:21:37.771Z,102202.72
2023-01-28T06:24:04.558Z,102209.34
2023-01-28T06:26:31.092Z,102207.84
2023-01-28T06:28:57.500Z,102210.41
2023-01-28T06:31:23.939Z,102216.91
2023-01-28T06:33:50.367Z,102222.00
2023-01-28T06:36:16.818Z,102223.69
2023-01-28T06:38:43.396Z,102231.63
2023-01-28T06:41:09.843Z,102217.78
2023-01-28T06:43:36.255Z,102219.75
2023-01-28T06:46:02.814Z,102218.97
2023-01-28T06:48:29.275Z,102218.09
2023-01-28T06:50:55.716Z,102226.81
2023-01-28T06:53:22.188Z,102218.97
2023-01-28T06:55:48.946Z,102222.56
2023-01-28T06:58:15.420Z,102218.38
2023-01-28T07:00:41.844Z,102226.22
2023-01-28T07:03:08.341Z,102230.56
2023-01-28T07:05:34.838Z,102227.41
2023-01-28T07:08:02.242Z,102230.41
2023-01-28T07:10:29.354Z,102228.91
2023-01-28T07:12:55.809Z,102226.63
2023-01-28T07:15:22.240Z,102225.59
2023-01-28T07:17:48.695Z,102224.06
2023-01-28T07:20:16.113Z,102218.69
2023-01-28T07:22:43.854Z,102229.81
2023-01-28T07:25:11.657Z,102232.50
2023-01-28T07:27:38.236Z,102229.19
2023-01-28T07:30:05.034Z,102236.41
2023-01-28T07:32:31.497Z,102230.53
2023-01-28T07:34:58.710Z,102233.97
2023-01-28T07:37:25.142Z,102236.09
2023-01-28T07:39:52.146Z,102237.00
2023-01-28T07:42:18.560Z,102228.69
2023-01-28T07:44:44.998Z,102228.06
2023-01-28T07:47:11.697Z,102234.22
2023-01-28T07:49:39.783Z,102232.72
2023-01-28T07:52:07.104Z,102233.75
2023-01-28T07:54:33.780Z,102243.41
2023-01-28T07:57:00.198Z,102239.06
2023-01-28T07:59:26.645Z,102246.09
2023-01-28T08:01:55.062Z,102249.56
2023-01-28T08:04:21.746Z,102250.47
2023-01-28T08:06:48.389Z,102255.72
2023-01-28T08:09:14.840Z,102253.31
2023-01-28T08:11:41.408Z,102257.69
2023-01-28T08:14:07.857Z,102266.41
2023-01-28T08:16:34.293Z,102268.19
2023-01-28T08:19:00.695Z,102267.56
2023-01-28T08:21:27.176Z,102267.00
2023-01-28T08:23:54.583Z,102267.13
2023-01-28T08:26:21.091Z,102264.72
2023-01-28T08:28:48.650Z,102261.53
2023-01-28T08:31:16.453Z,102265.13
2023-01-28T08:33:42.895Z,102266.94
2023-01-28T08:36:10.509Z,102260.13
2023-01-28T08:38:36.941Z,102262.25
2023-01-28T08:41:03.373Z,102256.38
2023-01-28T08:43:29.820Z,102268.41
2023-01-28T08:45:56.225Z,102258.44
2023-01-28T08:48:22.669Z,102267.94
2023-01-28T08:50:50.759Z,102270.63
2023-01-28T08:53:19.578Z,102269.25
2023-01-28T08:55:46.669Z,102270.31
2023-01-28T08:58:15.743Z,102267.88
2023-01-28T09:00:42.829Z,102275.72
2023-01-28T09:03:09.397Z,102273.44
2023-01-28T09:05:37.265Z,102285.47
2023-01-28T09:08:08.510Z,102293.31
2023-01-28T09:10:35.066Z,102301.75
2023-01-28T09:13:06.241Z,102309.59
2023-01-28T09:15:33.172Z,102311.09
2023-01-28T09:17:59.790Z,102305.72
2023-01-28T09:20:26.742Z,102313.53
2023-01-28T09:22:53.333Z,102316.22
2023-01-28T09:25:19.743Z,102324.19
2023-01-28T09:27:46.197Z,102322.53
2023-01-28T09:30:14.420Z,102315.31
2023-01-28T09:32:40.997Z,102307.88
2023-01-28T09:35:07.714Z,102321.75
2023-01-28T09:37:34.209Z,102321.88
2023-01-28T09:40:00.638Z,102318.69
2023-01-28T09:42:43.394Z,102327.44
2023-01-28T09:45:16.001Z,102328.50
2023-01-28T09:47:47.458Z,102322.75
2023-01-28T09:50:34.598Z,102329.66
2023-01-28T09:53:07.186Z,102324.66
2023-01-28T09:55:36.258Z,102335.69
2023-01-28T09:58:06.590Z,102323.00
2023-01-28T10:00:50.261Z,102324.03
2023-01-28T10:03:31.933Z,102322.38
2023-01-28T10:06:16.798Z,102327.06
2023-01-28T10:08:56.460Z,102324.75
2023-01-28T10:11:47.127Z,102331.41
2023-01-28T10:14:16.549Z,102338.34
2023-01-28T10:17:21.341Z,102332.19
2023-01-28T10:19:52.966Z,102334.44
2023-01-28T10:22:26.043Z,102339.28
2023-01-28T10:27:42.400Z,102331.75
2023-01-28T10:30:26.407Z,102330.56
2023-01-28T10:32:56.626Z,102323.38
2023-01-28T10:35:24.157Z,102326.19
2023-01-28T10:37:55.263Z,102325.44
2023-01-28T10:40:21.731Z,102328.63
2023-01-28T10:42:48.289Z,102313.09
2023-01-28T10:45:17.918Z,102329.19
2023-01-28T10:48:00.842Z,102326.28
2023-01-28T10:50:29.314Z,102323.72
2023-01-28T10:53:00.586Z,102321.75
2023-01-28T10:55:33.013Z,102316.63
2023-01-28T10:57:59.452Z,102325.38
2023-01-28T11:00:31.921Z,102316.03
2023-01-28T11:02:59.391Z,102321.16
2023-01-28T11:05:28.254Z,102312.41
2023-01-28T11:08:14.919Z,102312.41
2023-01-28T11:10:41.763Z,102314.97
2023-01-28T11:13:25.846Z,102316.97
2023-01-28T11:16:06.959Z,102310.47
2023-01-28T11:18:40.228Z,102300.97
2023-01-28T11:21:16.245Z,102310.47
2023-01-28T11:23:55.524Z,102315.72
2023-01-28T11:26:25.597Z,102312.13
2023-01-28T11:28:52.693Z,102307.00
2023-01-28T11:31:20.677Z,102303.66
2023-01-28T11:33:57.203Z,102297.66
2023-01-28T11:36:26.696Z,102290.09
2023-01-28T11:39:14.574Z,102299.56
2023-01-28T11:41:41.023Z,102305.47
2023-01-28T11:44:20.978Z,102304.88
2023-01-28T11:47:07.231Z,102294.44
2023-01-28T11:49:47.058Z,102300.34
2023-01-28T11:53:02.584Z,102295.97
2023-01-28T11:55:37.392Z,102299.78
2023-01-28T11:58:09.663Z,102288.00
2023-01-28T12:00:57.932Z,102289.03
2023-01-28T12:03:55.757Z,102292.50
2023-01-28T12:06:47.811Z,102298.13
2023-01-28T12:09:25.482Z,102299.03
2023-01-28T12:12:11.836Z,102289.91
2023-01-28T12:15:09.760Z,102278.75
2023-01-28T12:18:05.586Z,102282.03
2023-01-28T12:20:39.940Z,102279.00
2023-01-28T12:23:40.237Z,102269.03
2023-01-28T12:26:11.527Z,102266.59
2023-01-28T12:29:05.281Z,102255.09
2023-01-28T12:31:39.179Z,102269.56
2023-01-28T12:34:31.682Z,102257.25
2023-01-28T12:37:14.337Z,102259.31
2023-01-28T12:40:10.518Z,102258.53
2023-01-28T12:42:45.654Z,102255.38
2023-01-28T12:45:16.557Z,102259.88
2023-01-28T12:47:48.542Z,102260.78
2023-01-28T12:50:20.189Z,102252.97
2023-01-28T12:52:58.611Z,102246.03
2023-01-28T12:55:44.210Z,102246.31
2023-01-28T12:58:21.431Z,102237.56
2023-01-28T13:00:54.090Z,102235.13
2023-01-28T13:03:42.600Z,102228.75
2023-01-28T13:06:13.705Z,102227.22
2023-01-28T13:08:40.097Z,102228.28
2023-01-28T13:11:12.522Z,102226.63
2023-01-28T13:13:42.177Z,102221.75
2023-01-28T13:16:10.641Z,102223.81
2023-01-28T13:18:40.091Z,102219.72
2023-01-28T13:21:27.895Z,102214.13
2023-01-28T13:24:06.916Z,102212.59
2023-01-28T13:26:45.004Z,102219.53
2023-01-28T13:29:14.429Z,102227.34
2023-01-28T13:31:52.526Z,102217.09
2023-01-28T13:34:40.689Z,102200.78
2023-01-28T13:37:19.049Z,102192.84
2023-01-28T13:39:50.634Z,102196.91
2023-01-28T13:42:28.369Z,102193.88
2023-01-28T13:44:55.783Z,102180.13
2023-01-28T13:47:34.236Z,102175.78
2023-01-28T13:50:06.241Z,102165.22
2023-01-28T13:52:36.919Z,102164.94
2023-01-28T13:55:12.303Z,102153.78
2023-01-28T13:58:13.143Z,102138.66
2023-01-28T14:01:14.712Z,102145.47
2023-01-28T14:03:59.881Z,102156.16
2023-01-28T14:06:45.008Z,102163.22
2023-01-28T14:09:51.443Z,102166.66
2023-01-28T14:12:37.071Z,102177.19
2023-01-28T14:15:12.386Z,102201.44
2023-01-28T14:17:43.475Z,102194.50
2023-01-28T14:20:28.264Z,102210.78
2023-01-28T14:23:01.381Z,102209.13
2023-01-28T14:25:52.737Z,102208.50
2023-01-28T14:28:40.192Z,102190.53
2023-01-28T14:31:12.030Z,102217.72
2023-01-28T14:33:38.832Z,102220.91
2023-01-28T14:36:05.775Z,102228.63
2023-01-28T14:38:36.429Z,102222.28
2023-01-28T14:41:04.207Z,102219.72
2023-01-28T14:43:31.317Z,102220.84
2023-01-28T14:46:08.656Z,102217.84
2023-01-28T14:48:55.347Z,102228.88
2023-01-28T14:51:56.499Z,102223.47
2023-01-28T14:54:33.866Z,102220.66
2023-01-28T14:57:15.443Z,102222.19
2023-01-28T14:59:46.020Z,102221.41
2023-01-28T15:02:19.778Z,102222.81
2023-01-28T15:04:46.639Z,102222.66
2023-01-28T15:07:24.158Z,102216.50
2023-01-28T15:10:01.600Z,102218.78
2023-01-28T15:12:28.565Z,102223.78
2023-01-28T15:14:55.028Z,102224.41
2023-01-28T15:17:25.606Z,102220.03
2023-01-28T15:19:55.496Z,102209.66
2023-01-28T15:22:25.799Z,102204.53
2023-01-28T15:24:52.248Z,102193.97
2023-01-28T15:27:25.048Z,102204.72
2023-01-28T15:29:56.797Z,102204.59
2023-01-28T15:32:26.812Z,102214.56
2023-01-28T15:34:53.763Z,102217.59
2023-01-28T15:37:20.881Z,102206.31
2023-01-28T15:39:47.413Z,102198.34
2023-01-28T15:42:20.005Z,102197.31
2023-01-28T15:44:47.939Z,102200.63
2023-01-28T15:47:16.470Z,102202.28
2023-01-28T15:49:45.702Z,102216.78
2023-01-28T15:52:12.285Z,102220.72
2023-01-28T15:54:41.084Z,102225.69
2023-01-28T15:57:28.615Z,102233.84
2023-01-28T16:00:13.178Z,102247.44
2023-01-28T16:02:47.270Z,102239.47
2023-01-28T16:05:43.068Z,102239.94
2023-01-28T16:08:12.703Z,102239.66
2023-01-28T16:10:39.146Z,102222.75
2023-01-28T16:13:20.052Z,102221.13
2023-01-28T16:15:47.526Z,102226.28
2023-01-28T16:18:30.022Z,102233.38
2023-01-28T16:20:57.235Z,102223.91
2023-01-28T16:23:26.044Z,102235.25
2023-01-28T16:26:21.876Z,102236.63
2023-01-28T16:28:48.294Z,102242.19
2023-01-28T16:31:15.014Z,102241.03
2023-01-28T16:33:41.518Z,102247.03
2023-01-28T16:36:16.007Z,102246.00
2023-01-28T16:38:42.671Z,102257.00
2023-01-28T16:41:26.940Z,102255.19
2023-01-28T16:43:53.738Z,102265.16
2023-01-28T16:46:20.644Z,102259.88
2023-01-28T16:48:47.120Z,102254.75
2023-01-28T16:51:16.980Z,102257.78
2023-01-28T16:53:44.599Z,102268.50
2023-01-28T16:56:41.862Z,102265.03
2023-01-28T16:59:04.146Z,102254.50
2023-01-28T17:01:30.572Z,102257.66
2023-01-28T17:03:57.157Z,102260.53
2023-01-28T17:06:23.616Z,102255.56
2023-01-28T17:08:50.049Z,102248.00
2023-01-28T17:11:16.518Z,102248.00
2023-01-28T17:13:42.953Z,102244.56
2023-01-28T17:16:09.543Z,102260.53
2023-01-28T17:18:36.084Z,102261.13
2023-01-28T17:21:09.361Z,102261.72
2023-01-28T17:23:35.815Z,102269.28
2023-01-28T17:26:06.208Z,102285.38
2023-01-28T17:28:32.770Z,102285.25
2023-01-28T17:30:59.256Z,102278.94
2023-01-28T17:33:25.716Z,102274.44
2023-01-28T17:35:52.129Z,102283.44
2023-01-28T17:38:18.548Z,102301.06
2023-01-28T17:40:44.940Z,102296.72
2023-01-28T17:43:11.387Z,102291.31
2023-01-28T17:45:37.835Z,102271.47
2023-01-28T17:48:04.513Z,102269.47
2023-01-28T17:50:30.929Z,102283.78
2023-01-28T17:52:57.806Z,102277.75
2023-01-28T17:55:24.841Z,102276.56
2023-01-28T17:57:51.422Z,102280.66
2023-01-28T18:00:19.097Z,102292.25
2023-01-28T18:02:45.565Z,102284.84
2023-01-28T18:05:12.403Z,102282.75
2023-01-28T18:07:38.845Z,102286.50
2023-01-28T18:10:06.073Z,102277.50
2023-01-28T18:12:32.505Z,102270.91
2023-01-28T18:14:58.951Z,102279.00
2023-01-28T18:17:29.707Z,102278.56
2023-01-28T18:19:57.137Z,102280.81
2023-01-28T18:22:24.383Z,102282.34
2023-01-28T18:24:50.950Z,102284.41
2023-01-28T18:27:17.565Z,102289.97
2023-01-28T18:29:44.012Z,102287.28
2023-01-28T18:32:10.440Z,102281.13
2023-01-28T18:34:36.928Z,102296.13
2023-01-28T18:37:03.705Z,102285.31
2023-01-28T18:39:31.029Z,102296.44
2023-01-28T18:41:58.352Z,102301.38
2023-01-28T18:44:26.646Z,102304.56
2023-01-28T18:46:53.367Z,102305.31
2023-01-28T18:49:19.953Z,102303.16
2023-01-28T18:51:46.524Z,102303.47
2023-01-28T18:54:14.837Z,102307.38
2023-01-28T18:56:42.151Z,102305.56
2023-01-28T18:59:11.743Z,102300.47
2023-01-28T19:01:38.312Z,102303.78
2023-01-28T19:04:04.774Z,102308.69
2023-01-28T19:06:31.250Z,102304.78
2023-01-28T19:09:00.351Z,102306.28
2023-01-28T19:11:28.192Z,102309.59
2023-01-28T19:13:54.823Z,102310.78
2023-01-28T19:16:21.970Z,102308.41
2023-01-28T19:18:56.462Z,102319.38
2023-01-28T19:21:23.613Z,102306.88
2023-01-28T19:24:01.533Z,102309.44
2023-01-28T19:26:30.410Z,102317.09
2023-01-28T19:28:57.266Z,102308.69
2023-01-28T19:31:24.514Z,102302.13
2023-01-28T19:33:57.020Z,102301.03
2023-01-28T19:36:26.020Z,102309.28
2023-01-28T19:38:53.484Z,102300.72
2023-01-28T19:41:19.945Z,102293.06
2023-01-28T19:43:46.571Z,102295.47
2023-01-28T19:46:15.858Z,102291.72
2023-01-28T19:48:42.676Z,102293.81
2023-01-28T19:51:09.912Z,102288.53
2023-01-28T19:53:37.136Z,102286.72
2023-01-28T19:56:06.346Z,102273.66
2023-01-28T19:58:34.638Z,102277.09
2023-01-28T20:01:09.594Z,102278.44
2023-01-28T20:03:36.419Z,102282.50
2023-01-28T20:06:04.759Z,102273.78
2023-01-28T20:08:32.373Z,102275.25
2023-01-28T20:11:13.202Z,102282.78
2023-01-28T20:13:41.768Z,102288.31
2023-01-28T20:16:11.120Z,102284.88
2023-01-28T20:18:37.550Z,102271.94
2023-01-28T20:21:06.739Z,102270.00
2023-01-28T20:23:33.512Z,102276.41
2023-01-28T20:26:03.221Z,102285.72
2023-01-28T20:28:29.675Z,102274.31
2023-01-28T20:30:56.616Z,102281.81
2023-01-28T20:33:23.560Z,102271.59
2023-01-28T20:35:50.000Z,102273.09
2023-01-28T20:38:16.430Z,102272.66
2023-01-28T20:40:43.808Z,102262.84
2023-01-28T20:43:10.239Z,102248.13
2023-01-28T20:45:36.737Z,102265.25
2023-01-28T20:48:03.226Z,102268.53
2023-01-28T20:50:29.675Z,102268.25
2023-01-28T20:52:56.275Z,102256.06
2023-01-28T20:55:22.721Z,102251.72
2023-01-28T20:57:49.162Z,102253.78
2023-01-28T21:00:16.085Z,102261.13
2023-01-28T21:02:44.363Z,102258.28
2023-01-28T21:05:10.833Z,102257.81
2023-01-28T21:07:37.441Z,102264.06
2023-01-28T21:10:04.124Z,102260.31
2023-01-28T21:12:30.944Z,102263.59
2023-01-28T21:14:57.628Z,102264.66
2023-01-28T21:17:24.723Z,102266.16
2023-01-28T21:19:51.147Z,102271.84
2023-01-28T21:22:17.624Z,102278.59
2023-01-28T21:24:45.448Z,102275.13
2023-01-28T21:27:11.895Z,102268.03
2023-01-28T21:29:38.295Z,102263.53
2023-01-28T21:32:04.828Z,102265.19
2023-01-28T21:34:31.267Z,102267.44
2023-01-28T21:36:57.713Z,102267.25
2023-01-28T21:39:24.172Z,102268.75
2023-01-28T21:41:50.891Z,102260.06
2023-01-28T21:44:17.282Z,102254.75
2023-01-28T21:46:46.060Z,102257.16
2023-01-28T21:49:12.579Z,102262.09
2023-01-28T21:51:48.017Z,102256.69
2023-01-28T21:54:16.716Z,102256.69
2023-01-28T21:56:45.099Z,102259.56
2023-01-28T21:59:30.562Z,102262.25
2023-01-28T22:02:02.803Z,102253.72
2023-01-28T22:04:35.783Z,102249.34
2023-01-28T22:07:03.970Z,102252.66
2023-01-28T22:09:31.146Z,102251.44
2023-01-28T22:11:57.656Z,102250.22
2023-01-28T22:14:24.074Z,102245.88
2023-01-28T22:16:50.553Z,102240.75
2023-01-28T22:19:17.128Z,102240.75
2023-01-28T22:21:44.739Z,102243.31
2023-01-28T22:24:16.806Z,102244.63
2023-01-28T22:26:43.920Z,102248.97
2023-01-28T22:29:11.372Z,102241.91
2023-01-28T22:31:38.008Z,102226.31
2023-01-28T22:34:05.428Z,102223.44
2023-01-28T22:36:32.978Z,102227.78
2023-01-28T22:39:04.110Z,102221.03
2023-01-28T22:41:31.056Z,102226.16
2023-01-28T22:43:57.553Z,102232.16
2023-01-28T22:46:25.003Z,102228.84
2023-01-28T22:48:51.441Z,102224.81
2023-01-28T22:51:21.405Z,102225.88
2023-01-28T22:53:48.459Z,102226.94
2023-01-28T22:56:15.755Z,102229.47
2023-01-28T22:58:42.304Z,102230.97
2023-01-28T23:01:09.218Z,102228.56
2023-01-28T23:03:35.649Z,102222.72
2023-01-28T23:06:04.476Z,102219.28
2023-01-28T23:08:31.506Z,102206.69
2023-01-28T23:11:01.337Z,102208.34
2023-01-28T23:13:48.159Z,102219.28
2023-01-28T23:16:33.269Z,102217.16
2023-01-28T23:19:18.109Z,102202.63
2023-01-28T23:22:03.186Z,102199.00
2023-01-28T23:24:30.607Z,102203.34
2023-01-28T23:26:59.296Z,102206.81
2023-01-28T23:29:30.987Z,102211.00
2023-01-28T23:32:03.695Z,102209.50
2023-01-28T23:34:39.059Z,102208.78
2023-01-28T23:37:07.097Z,102211.16
2023-01-28T23:39:34.157Z,102200.81
2023-01-28T23:42:14.973Z,102192.41
2023-01-28T23:44:41.608Z,102186.56
2023-01-28T23:47:08.584Z,102190.75
2023-01-28T23:49:35.059Z,102194.06
2023-01-28T23:52:02.847Z,102195.72
2023-01-28T23:54:29.457Z,102204.25
2023-01-28T23:56:55.879Z,102193.31
2023-01-28T23:59:22.293Z,102191.66
